sensor_id;sensor_type;location;lat;lon;timestamp;P1;durP1;ratioP1;P2;durP2;ratioP2
42104;SDS011;68365;51.472;5.712;2023-04-24T00:00:17;4.63;;;2.40;;
42104;SDS011;68365;51.472;5.712;2023-04-24T00:02:44;5.03;;;2.50;;
42104;SDS011;68365;51.472;5.712;2023-04-24T00:05:12;4.88;;;2.72;;
42104;SDS011;68365;51.472;5.712;2023-04-24T00:07:42;4.57;;;2.28;;
42104;SDS011;68365;51.472;5.712;2023-04-24T00:10:10;5.90;;;2.15;;
42104;SDS011;68365;51.472;5.712;2023-04-24T00:12:37;6.90;;;2.50;;
42104;SDS011;68365;51.472;5.712;2023-04-24T00:15:03;5.70;;;2.55;;
42104;SDS011;68365;51.472;5.712;2023-04-24T00:17:30;4.38;;;2.30;;
42104;SDS011;68365;51.472;5.712;2023-04-24T00:19:55;4.45;;;2.40;;
42104;SDS011;68365;51.472;5.712;2023-04-24T00:22:27;4.15;;;2.35;;
42104;SDS011;68365;51.472;5.712;2023-04-24T00:24:56;6.75;;;2.50;;
42104;SDS011;68365;51.472;5.712;2023-04-24T00:27:22;5.22;;;2.85;;
42104;SDS011;68365;51.472;5.712;2023-04-24T00:29:48;3.58;;;2.30;;
42104;SDS011;68365;51.472;5.712;2023-04-24T00:32:14;4.97;;;2.20;;
42104;SDS011;68365;51.472;5.712;2023-04-24T00:34:40;4.03;;;2.10;;
42104;SDS011;68365;51.472;5.712;2023-04-24T00:37:10;5.03;;;2.17;;
42104;SDS011;68365;51.472;5.712;2023-04-24T00:39:36;4.20;;;2.45;;
42104;SDS011;68365;51.472;5.712;2023-04-24T00:42:02;3.78;;;2.20;;
42104;SDS011;68365;51.472;5.712;2023-04-24T00:44:30;5.68;;;2.13;;
42104;SDS011;68365;51.472;5.712;2023-04-24T00:46:58;3.83;;;2.30;;
42104;SDS011;68365;51.472;5.712;2023-04-24T00:49:25;3.72;;;2.30;;
42104;SDS011;68365;51.472;5.712;2023-04-24T00:51:51;3.80;;;2.20;;
42104;SDS011;68365;51.472;5.712;2023-04-24T00:54:17;4.40;;;2.10;;
42104;SDS011;68365;51.472;5.712;2023-04-24T00:56:45;2.13;;;1.73;;
42104;SDS011;68365;51.472;5.712;2023-04-24T00:59:12;3.55;;;2.20;;
42104;SDS011;68365;51.472;5.712;2023-04-24T01:01:38;3.92;;;2.20;;
42104;SDS011;68365;51.472;5.712;2023-04-24T01:04:11;4.20;;;2.10;;
42104;SDS011;68365;51.472;5.712;2023-04-24T01:06:39;6.57;;;2.05;;
42104;SDS011;68365;51.472;5.712;2023-04-24T01:09:08;4.50;;;1.90;;
42104;SDS011;68365;51.472;5.712;2023-04-24T01:11:36;3.63;;;2.42;;
42104;SDS011;68365;51.472;5.712;2023-04-24T01:14:02;4.50;;;2.00;;
42104;SDS011;68365;51.472;5.712;2023-04-24T01:16:28;3.42;;;2.10;;
42104;SDS011;68365;51.472;5.712;2023-04-24T01:18:54;3.78;;;2.00;;
42104;SDS011;68365;51.472;5.712;2023-04-24T01:21:20;3.10;;;2.00;;
42104;SDS011;68365;51.472;5.712;2023-04-24T01:23:48;2.90;;;1.70;;
42104;SDS011;68365;51.472;5.712;2023-04-24T01:26:15;3.65;;;2.00;;
42104;SDS011;68365;51.472;5.712;2023-04-24T01:28:42;3.45;;;1.77;;
42104;SDS011;68365;51.472;5.712;2023-04-24T01:31:08;4.03;;;2.28;;
42104;SDS011;68365;51.472;5.712;2023-04-24T01:33:34;4.30;;;2.00;;
42104;SDS011;68365;51.472;5.712;2023-04-24T01:36:00;5.35;;;2.33;;
42104;SDS011;68365;51.472;5.712;2023-04-24T01:38:26;3.25;;;2.10;;
42104;SDS011;68365;51.472;5.712;2023-04-24T01:40:52;4.15;;;2.00;;
42104;SDS011;68365;51.472;5.712;2023-04-24T01:43:18;2.90;;;2.00;;
42104;SDS011;68365;51.472;5.712;2023-04-24T01:45:44;3.63;;;1.92;;
42104;SDS011;68365;51.472;5.712;2023-04-24T01:48:11;4.75;;;2.47;;
42104;SDS011;68365;51.472;5.712;2023-04-24T01:50:37;3.17;;;2.20;;
42104;SDS011;68365;51.472;5.712;2023-04-24T01:53:04;4.22;;;2.35;;
42104;SDS011;68365;51.472;5.712;2023-04-24T01:55:30;3.45;;;2.08;;
42104;SDS011;68365;51.472;5.712;2023-04-24T01:57:56;3.22;;;2.13;;
42104;SDS011;68365;51.472;5.712;2023-04-24T02:00:24;5.75;;;2.45;;
42104;SDS011;68365;51.472;5.712;2023-04-24T02:02:50;4.82;;;2.30;;
42104;SDS011;68365;51.472;5.712;2023-04-24T02:05:16;3.10;;;2.05;;
42104;SDS011;68365;51.472;5.712;2023-04-24T02:07:42;3.47;;;1.95;;
42104;SDS011;68365;51.472;5.712;2023-04-24T02:10:08;2.63;;;2.05;;
42104;SDS011;68365;51.472;5.712;2023-04-24T02:12:34;3.50;;;2.00;;
42104;SDS011;68365;51.472;5.712;2023-04-24T02:15:00;3.25;;;1.80;;
42104;SDS011;68365;51.472;5.712;2023-04-24T02:17:26;3.97;;;1.90;;
42104;SDS011;68365;51.472;5.712;2023-04-24T02:19:52;3.58;;;2.17;;
42104;SDS011;68365;51.472;5.712;2023-04-24T02:22:17;3.80;;;1.92;;
42104;SDS011;68365;51.472;5.712;2023-04-24T02:24:43;3.22;;;1.98;;
42104;SDS011;68365;51.472;5.712;2023-04-24T02:27:09;3.00;;;2.00;;
42104;SDS011;68365;51.472;5.712;2023-04-24T02:29:36;4.30;;;2.00;;
42104;SDS011;68365;51.472;5.712;2023-04-24T02:32:02;4.68;;;2.33;;
42104;SDS011;68365;51.472;5.712;2023-04-24T02:34:28;3.80;;;2.00;;
42104;SDS011;68365;51.472;5.712;2023-04-24T02:36:53;6.32;;;2.40;;
42104;SDS011;68365;51.472;5.712;2023-04-24T02:39:19;3.75;;;2.17;;
42104;SDS011;68365;51.472;5.712;2023-04-24T02:41:46;4.07;;;2.10;;
42104;SDS011;68365;51.472;5.712;2023-04-24T02:44:12;3.92;;;2.20;;
42104;SDS011;68365;51.472;5.712;2023-04-24T02:46:38;4.55;;;2.10;;
42104;SDS011;68365;51.472;5.712;2023-04-24T02:49:06;3.53;;;2.05;;
42104;SDS011;68365;51.472;5.712;2023-04-24T02:51:31;3.78;;;2.22;;
42104;SDS011;68365;51.472;5.712;2023-04-24T02:53:57;3.47;;;1.90;;
42104;SDS011;68365;51.472;5.712;2023-04-24T02:56:23;4.55;;;2.20;;
42104;SDS011;68365;51.472;5.712;2023-04-24T02:58:49;3.17;;;2.13;;
42104;SDS011;68365;51.472;5.712;2023-04-24T03:01:14;4.03;;;2.40;;
42104;SDS011;68365;51.472;5.712;2023-04-24T03:03:40;5.32;;;2.28;;
42104;SDS011;68365;51.472;5.712;2023-04-24T03:06:06;3.85;;;2.15;;
42104;SDS011;68365;51.472;5.712;2023-04-24T03:08:33;4.53;;;1.98;;
42104;SDS011;68365;51.472;5.712;2023-04-24T03:10:59;3.17;;;2.08;;
42104;SDS011;68365;51.472;5.712;2023-04-24T03:13:25;5.18;;;2.60;;
42104;SDS011;68365;51.472;5.712;2023-04-24T03:15:51;3.10;;;2.22;;
42104;SDS011;68365;51.472;5.712;2023-04-24T03:18:17;3.75;;;2.20;;
42104;SDS011;68365;51.472;5.712;2023-04-24T03:20:45;4.40;;;2.40;;
42104;SDS011;68365;51.472;5.712;2023-04-24T03:23:12;3.83;;;2.05;;
42104;SDS011;68365;51.472;5.712;2023-04-24T03:25:38;2.63;;;2.08;;
42104;SDS011;68365;51.472;5.712;2023-04-24T03:28:03;3.13;;;2.15;;
42104;SDS011;68365;51.472;5.712;2023-04-24T03:30:29;3.60;;;2.25;;
42104;SDS011;68365;51.472;5.712;2023-04-24T03:32:55;2.90;;;2.10;;
42104;SDS011;68365;51.472;5.712;2023-04-24T03:35:21;3.30;;;2.08;;
42104;SDS011;68365;51.472;5.712;2023-04-24T03:37:47;3.13;;;2.20;;
42104;SDS011;68365;51.472;5.712;2023-04-24T03:40:13;2.75;;;2.08;;
42104;SDS011;68365;51.472;5.712;2023-04-24T03:42:38;3.92;;;2.13;;
42104;SDS011;68365;51.472;5.712;2023-04-24T03:45:04;5.85;;;2.15;;
42104;SDS011;68365;51.472;5.712;2023-04-24T03:47:31;4.38;;;2.17;;
42104;SDS011;68365;51.472;5.712;2023-04-24T03:49:57;3.40;;;1.77;;
42104;SDS011;68365;51.472;5.712;2023-04-24T03:52:23;3.45;;;2.22;;
42104;SDS011;68365;51.472;5.712;2023-04-24T03:54:48;2.63;;;2.05;;
42104;SDS011;68365;51.472;5.712;2023-04-24T03:57:14;4.88;;;2.30;;
42104;SDS011;68365;51.472;5.712;2023-04-24T03:59:40;3.42;;;2.20;;
42104;SDS011;68365;51.472;5.712;2023-04-24T04:02:06;3.90;;;2.25;;
42104;SDS011;68365;51.472;5.712;2023-04-24T04:04:32;3.38;;;2.08;;
42104;SDS011;68365;51.472;5.712;2023-04-24T04:06:58;2.30;;;2.10;;
42104;SDS011;68365;51.472;5.712;2023-04-24T04:09:26;2.78;;;2.10;;
42104;SDS011;68365;51.472;5.712;2023-04-24T04:11:52;2.90;;;2.30;;
42104;SDS011;68365;51.472;5.712;2023-04-24T04:14:18;3.95;;;2.40;;
42104;SDS011;68365;51.472;5.712;2023-04-24T04:16:44;3.83;;;2.03;;
42104;SDS011;68365;51.472;5.712;2023-04-24T04:19:10;2.75;;;2.10;;
42104;SDS011;68365;51.472;5.712;2023-04-24T04:21:36;3.70;;;2.15;;
42104;SDS011;68365;51.472;5.712;2023-04-24T04:24:01;3.15;;;2.20;;
42104;SDS011;68365;51.472;5.712;2023-04-24T04:26:27;3.40;;;2.10;;
42104;SDS011;68365;51.472;5.712;2023-04-24T04:28:53;3.60;;;1.98;;
42104;SDS011;68365;51.472;5.712;2023-04-24T04:31:19;5.25;;;2.20;;
42104;SDS011;68365;51.472;5.712;2023-04-24T04:33:46;3.58;;;2.30;;
42104;SDS011;68365;51.472;5.712;2023-04-24T04:36:11;4.00;;;2.20;;
42104;SDS011;68365;51.472;5.712;2023-04-24T04:38:37;3.55;;;2.35;;
42104;SDS011;68365;51.472;5.712;2023-04-24T04:41:03;3.80;;;2.08;;
42104;SDS011;68365;51.472;5.712;2023-04-24T04:43:29;4.00;;;2.40;;
42104;SDS011;68365;51.472;5.712;2023-04-24T04:45:55;3.00;;;2.10;;
42104;SDS011;68365;51.472;5.712;2023-04-24T04:48:23;3.22;;;2.00;;
42104;SDS011;68365;51.472;5.712;2023-04-24T04:50:48;2.38;;;2.10;;
42104;SDS011;68365;51.472;5.712;2023-04-24T04:53:14;2.95;;;1.88;;
42104;SDS011;68365;51.472;5.712;2023-04-24T04:55:40;2.63;;;2.22;;
42104;SDS011;68365;51.472;5.712;2023-04-24T04:58:06;3.72;;;2.15;;
42104;SDS011;68365;51.472;5.712;2023-04-24T05:00:32;2.47;;;2.25;;
42104;SDS011;68365;51.472;5.712;2023-04-24T05:03:00;2.25;;;1.88;;
42104;SDS011;68365;51.472;5.712;2023-04-24T05:05:27;2.17;;;1.90;;
42104;SDS011;68365;51.472;5.712;2023-04-24T05:07:54;2.67;;;2.17;;
42104;SDS011;68365;51.472;5.712;2023-04-24T05:10:19;3.67;;;2.20;;
42104;SDS011;68365;51.472;5.712;2023-04-24T05:12:45;2.60;;;2.05;;
42104;SDS011;68365;51.472;5.712;2023-04-24T05:15:11;4.00;;;2.20;;
42104;SDS011;68365;51.472;5.712;2023-04-24T05:17:37;3.10;;;2.20;;
42104;SDS011;68365;51.472;5.712;2023-04-24T05:20:04;3.20;;;2.08;;
42104;SDS011;68365;51.472;5.712;2023-04-24T05:22:32;2.72;;;2.10;;
42104;SDS011;68365;51.472;5.712;2023-04-24T05:24:58;3.45;;;2.00;;
42104;SDS011;68365;51.472;5.712;2023-04-24T05:27:24;3.47;;;2.40;;
42104;SDS011;68365;51.472;5.712;2023-04-24T05:29:50;2.97;;;2.20;;
42104;SDS011;68365;51.472;5.712;2023-04-24T05:32:16;3.88;;;2.35;;
42104;SDS011;68365;51.472;5.712;2023-04-24T05:34:42;2.45;;;1.90;;
42104;SDS011;68365;51.472;5.712;2023-04-24T05:37:07;3.00;;;2.03;;
42104;SDS011;68365;51.472;5.712;2023-04-24T05:39:35;2.92;;;2.03;;
42104;SDS011;68365;51.472;5.712;2023-04-24T05:42:01;3.95;;;2.28;;
42104;SDS011;68365;51.472;5.712;2023-04-24T05:44:29;4.20;;;2.47;;
42104;SDS011;68365;51.472;5.712;2023-04-24T05:46:55;2.45;;;1.70;;
42104;SDS011;68365;51.472;5.712;2023-04-24T05:49:21;3.30;;;2.10;;
42104;SDS011;68365;51.472;5.712;2023-04-24T05:51:47;2.75;;;2.10;;
42104;SDS011;68365;51.472;5.712;2023-04-24T05:54:13;2.80;;;1.80;;
42104;SDS011;68365;51.472;5.712;2023-04-24T05:56:39;3.70;;;2.30;;
42104;SDS011;68365;51.472;5.712;2023-04-24T05:59:05;3.72;;;2.10;;
42104;SDS011;68365;51.472;5.712;2023-04-24T06:01:32;2.47;;;2.28;;
42104;SDS011;68365;51.472;5.712;2023-04-24T06:03:58;3.00;;;1.95;;
42104;SDS011;68365;51.472;5.712;2023-04-24T06:06:24;3.28;;;1.80;;
42104;SDS011;68365;51.472;5.712;2023-04-24T06:08:50;2.50;;;2.03;;
42104;SDS011;68365;51.472;5.712;2023-04-24T06:11:16;2.60;;;2.00;;
42104;SDS011;68365;51.472;5.712;2023-04-24T06:13:42;3.22;;;2.10;;
42104;SDS011;68365;51.472;5.712;2023-04-24T06:16:08;3.67;;;2.03;;
42104;SDS011;68365;51.472;5.712;2023-04-24T06:18:34;2.95;;;2.10;;
42104;SDS011;68365;51.472;5.712;2023-04-24T06:21:00;3.05;;;2.10;;
42104;SDS011;68365;51.472;5.712;2023-04-24T06:23:26;3.22;;;2.15;;
42104;SDS011;68365;51.472;5.712;2023-04-24T06:25:51;3.22;;;2.03;;
42104;SDS011;68365;51.472;5.712;2023-04-24T06:28:17;2.75;;;2.20;;
42104;SDS011;68365;51.472;5.712;2023-04-24T06:30:43;2.35;;;1.80;;
42104;SDS011;68365;51.472;5.712;2023-04-24T06:33:09;2.97;;;1.80;;
42104;SDS011;68365;51.472;5.712;2023-04-24T06:35:35;2.67;;;1.90;;
42104;SDS011;68365;51.472;5.712;2023-04-24T06:38:03;2.30;;;1.80;;
42104;SDS011;68365;51.472;5.712;2023-04-24T06:40:29;2.00;;;1.80;;
42104;SDS011;68365;51.472;5.712;2023-04-24T06:42:55;2.20;;;1.60;;
42104;SDS011;68365;51.472;5.712;2023-04-24T06:45:22;2.63;;;1.75;;
42104;SDS011;68365;51.472;5.712;2023-04-24T06:47:48;2.65;;;1.90;;
42104;SDS011;68365;51.472;5.712;2023-04-24T06:50:17;2.60;;;1.80;;
42104;SDS011;68365;51.472;5.712;2023-04-24T06:52:42;3.17;;;2.00;;
42104;SDS011;68365;51.472;5.712;2023-04-24T06:55:09;2.65;;;1.90;;
42104;SDS011;68365;51.472;5.712;2023-04-24T06:57:36;1.88;;;1.73;;
42104;SDS011;68365;51.472;5.712;2023-04-24T07:00:02;2.97;;;1.80;;
42104;SDS011;68365;51.472;5.712;2023-04-24T07:02:33;2.80;;;1.92;;
42104;SDS011;68365;51.472;5.712;2023-04-24T07:04:59;2.35;;;1.85;;
42104;SDS011;68365;51.472;5.712;2023-04-24T07:07:24;1.85;;;1.50;;
42104;SDS011;68365;51.472;5.712;2023-04-24T07:09:50;3.63;;;1.70;;
42104;SDS011;68365;51.472;5.712;2023-04-24T07:12:16;2.00;;;1.60;;
42104;SDS011;68365;51.472;5.712;2023-04-24T07:14:44;2.40;;;1.73;;
42104;SDS011;68365;51.472;5.712;2023-04-24T07:17:10;3.10;;;2.05;;
42104;SDS011;68365;51.472;5.712;2023-04-24T07:19:38;2.30;;;1.60;;
42104;SDS011;68365;51.472;5.712;2023-04-24T07:22:03;3.65;;;1.52;;
42104;SDS011;68365;51.472;5.712;2023-04-24T07:24:30;4.30;;;1.98;;
42104;SDS011;68365;51.472;5.712;2023-04-24T07:26:57;2.22;;;1.60;;
42104;SDS011;68365;51.472;5.712;2023-04-24T07:29:23;2.40;;;1.80;;
42104;SDS011;68365;51.472;5.712;2023-04-24T07:31:49;2.92;;;1.83;;
42104;SDS011;68365;51.472;5.712;2023-04-24T07:34:15;3.75;;;1.58;;
42104;SDS011;68365;51.472;5.712;2023-04-24T07:36:41;1.98;;;1.42;;
42104;SDS011;68365;51.472;5.712;2023-04-24T07:39:07;3.65;;;2.00;;
42104;SDS011;68365;51.472;5.712;2023-04-24T07:41:33;3.78;;;1.77;;
42104;SDS011;68365;51.472;5.712;2023-04-24T07:43:59;2.65;;;1.73;;
42104;SDS011;68365;51.472;5.712;2023-04-24T07:46:25;2.05;;;1.60;;
42104;SDS011;68365;51.472;5.712;2023-04-24T07:48:54;4.07;;;1.67;;
42104;SDS011;68365;51.472;5.712;2023-04-24T07:51:20;2.20;;;1.50;;
42104;SDS011;68365;51.472;5.712;2023-04-24T07:53:46;3.75;;;1.70;;
42104;SDS011;68365;51.472;5.712;2023-04-24T07:56:12;2.25;;;1.70;;
42104;SDS011;68365;51.472;5.712;2023-04-24T07:58:38;2.63;;;1.80;;
42104;SDS011;68365;51.472;5.712;2023-04-24T08:01:04;3.25;;;1.85;;
42104;SDS011;68365;51.472;5.712;2023-04-24T08:03:30;2.40;;;1.95;;
42104;SDS011;68365;51.472;5.712;2023-04-24T08:05:56;2.30;;;1.70;;
42104;SDS011;68365;51.472;5.712;2023-04-24T08:08:22;2.90;;;1.75;;
42104;SDS011;68365;51.472;5.712;2023-04-24T08:10:48;3.25;;;1.80;;
42104;SDS011;68365;51.472;5.712;2023-04-24T08:13:15;2.53;;;1.88;;
42104;SDS011;68365;51.472;5.712;2023-04-24T08:15:40;2.58;;;1.83;;
42104;SDS011;68365;51.472;5.712;2023-04-24T08:18:06;3.28;;;1.92;;
42104;SDS011;68365;51.472;5.712;2023-04-24T08:20:33;3.75;;;1.60;;
42104;SDS011;68365;51.472;5.712;2023-04-24T08:22:58;3.13;;;1.73;;
42104;SDS011;68365;51.472;5.712;2023-04-24T08:25:24;3.10;;;1.88;;
42104;SDS011;68365;51.472;5.712;2023-04-24T08:27:50;3.03;;;1.90;;
42104;SDS011;68365;51.472;5.712;2023-04-24T08:30:17;4.15;;;2.13;;
42104;SDS011;68365;51.472;5.712;2023-04-24T08:32:43;6.53;;;2.05;;
42104;SDS011;68365;51.472;5.712;2023-04-24T08:35:09;3.95;;;1.88;;
42104;SDS011;68365;51.472;5.712;2023-04-24T08:37:35;3.10;;;1.95;;
42104;SDS011;68365;51.472;5.712;2023-04-24T08:40:35;3.83;;;1.80;;
42104;SDS011;68365;51.472;5.712;2023-04-24T08:42:55;3.83;;;1.85;;
42104;SDS011;68365;51.472;5.712;2023-04-24T08:45:22;9.13;;;2.15;;
42104;SDS011;68365;51.472;5.712;2023-04-24T08:47:49;2.88;;;1.95;;
42104;SDS011;68365;51.472;5.712;2023-04-24T08:50:15;4.63;;;1.92;;
42104;SDS011;68365;51.472;5.712;2023-04-24T08:52:41;2.85;;;2.20;;
42104;SDS011;68365;51.472;5.712;2023-04-24T08:55:07;3.00;;;1.90;;
42104;SDS011;68365;51.472;5.712;2023-04-24T08:57:34;2.50;;;1.95;;
42104;SDS011;68365;51.472;5.712;2023-04-24T09:00:03;3.17;;;2.22;;
42104;SDS011;68365;51.472;5.712;2023-04-24T09:02:30;3.80;;;2.00;;
42104;SDS011;68365;51.472;5.712;2023-04-24T09:04:57;2.50;;;1.75;;
42104;SDS011;68365;51.472;5.712;2023-04-24T09:07:24;2.97;;;2.10;;
42104;SDS011;68365;51.472;5.712;2023-04-24T09:09:52;3.90;;;2.03;;
42104;SDS011;68365;51.472;5.712;2023-04-24T09:12:19;4.32;;;1.95;;
42104;SDS011;68365;51.472;5.712;2023-04-24T09:14:45;2.83;;;1.70;;
42104;SDS011;68365;51.472;5.712;2023-04-24T09:17:13;3.75;;;2.10;;
42104;SDS011;68365;51.472;5.712;2023-04-24T09:19:39;4.57;;;2.00;;
42104;SDS011;68365;51.472;5.712;2023-04-24T09:22:06;4.07;;;2.03;;
42104;SDS011;68365;51.472;5.712;2023-04-24T09:24:34;5.82;;;2.60;;
42104;SDS011;68365;51.472;5.712;2023-04-24T09:27:00;2.67;;;1.75;;
42104;SDS011;68365;51.472;5.712;2023-04-24T09:29:26;8.10;;;2.10;;
42104;SDS011;68365;51.472;5.712;2023-04-24T09:31:53;6.78;;;2.10;;
42104;SDS011;68365;51.472;5.712;2023-04-24T09:34:22;4.85;;;2.33;;
42104;SDS011;68365;51.472;5.712;2023-04-24T09:36:50;5.50;;;2.10;;
42104;SDS011;68365;51.472;5.712;2023-04-24T09:39:16;7.18;;;2.00;;
42104;SDS011;68365;51.472;5.712;2023-04-24T09:41:49;8.73;;;2.38;;
42104;SDS011;68365;51.472;5.712;2023-04-24T09:44:18;6.75;;;2.20;;
42104;SDS011;68365;51.472;5.712;2023-04-24T09:46:49;7.25;;;2.30;;
42104;SDS011;68365;51.472;5.712;2023-04-24T09:49:25;4.53;;;1.90;;
42104;SDS011;68365;51.472;5.712;2023-04-24T09:52:03;7.72;;;2.15;;
42104;SDS011;68365;51.472;5.712;2023-04-24T09:54:33;7.22;;;2.20;;
42104;SDS011;68365;51.472;5.712;2023-04-24T09:57:01;5.70;;;2.08;;
42104;SDS011;68365;51.472;5.712;2023-04-24T09:59:27;11.13;;;2.22;;
42104;SDS011;68365;51.472;5.712;2023-04-24T10:01:54;6.22;;;2.70;;
42104;SDS011;68365;51.472;5.712;2023-04-24T10:04:22;5.20;;;1.98;;
42104;SDS011;68365;51.472;5.712;2023-04-24T10:06:54;4.85;;;1.45;;
42104;SDS011;68365;51.472;5.712;2023-04-24T10:09:23;7.70;;;1.92;;
42104;SDS011;68365;51.472;5.712;2023-04-24T10:11:51;7.07;;;1.83;;
42104;SDS011;68365;51.472;5.712;2023-04-24T10:14:23;4.43;;;1.80;;
42104;SDS011;68365;51.472;5.712;2023-04-24T10:16:50;6.97;;;2.17;;
42104;SDS011;68365;51.472;5.712;2023-04-24T10:19:19;6.32;;;2.10;;
42104;SDS011;68365;51.472;5.712;2023-04-24T10:21:45;7.45;;;2.28;;
42104;SDS011;68365;51.472;5.712;2023-04-24T10:24:15;5.70;;;1.98;;
42104;SDS011;68365;51.472;5.712;2023-04-24T10:26:45;8.02;;;2.20;;
42104;SDS011;68365;51.472;5.712;2023-04-24T10:29:13;5.90;;;2.13;;
42104;SDS011;68365;51.472;5.712;2023-04-24T10:31:41;7.68;;;2.42;;
42104;SDS011;68365;51.472;5.712;2023-04-24T10:34:10;5.57;;;1.95;;
42104;SDS011;68365;51.472;5.712;2023-04-24T10:36:38;7.72;;;2.53;;
42104;SDS011;68365;51.472;5.712;2023-04-24T10:39:11;7.70;;;2.13;;
42104;SDS011;68365;51.472;5.712;2023-04-24T10:41:42;5.03;;;2.10;;
42104;SDS011;68365;51.472;5.712;2023-04-24T10:44:12;6.07;;;2.15;;
42104;SDS011;68365;51.472;5.712;2023-04-24T10:46:44;6.25;;;1.98;;
42104;SDS011;68365;51.472;5.712;2023-04-24T10:49:17;14.48;;;2.13;;
42104;SDS011;68365;51.472;5.712;2023-04-24T10:51:54;7.18;;;2.00;;
42104;SDS011;68365;51.472;5.712;2023-04-24T10:59:51;5.32;;;2.30;;
42104;SDS011;68365;51.472;5.712;2023-04-24T11:02:39;8.07;;;2.05;;
42104;SDS011;68365;51.472;5.712;2023-04-24T11:05:13;6.50;;;2.15;;
42104;SDS011;68365;51.472;5.712;2023-04-24T11:10:44;4.03;;;1.90;;
42104;SDS011;68365;51.472;5.712;2023-04-24T11:13:21;13.45;;;2.55;;
42104;SDS011;68365;51.472;5.712;2023-04-24T11:18:51;4.63;;;2.53;;
42104;SDS011;68365;51.472;5.712;2023-04-24T11:21:25;11.32;;;2.40;;
42104;SDS011;68365;51.472;5.712;2023-04-24T11:24:30;14.13;;;2.97;;
42104;SDS011;68365;51.472;5.712;2023-04-24T11:27:17;5.72;;;2.58;;
42104;SDS011;68365;51.472;5.712;2023-04-24T11:29:46;7.20;;;2.05;;
42104;SDS011;68365;51.472;5.712;2023-04-24T11:35:03;5.88;;;2.00;;
42104;SDS011;68365;51.472;5.712;2023-04-24T11:37:46;7.60;;;2.05;;
42104;SDS011;68365;51.472;5.712;2023-04-24T11:40:15;10.23;;;2.40;;
42104;SDS011;68365;51.472;5.712;2023-04-24T11:42:46;4.60;;;1.90;;
42104;SDS011;68365;51.472;5.712;2023-04-24T11:45:20;8.75;;;2.20;;
42104;SDS011;68365;51.472;5.712;2023-04-24T11:47:49;6.50;;;2.22;;
42104;SDS011;68365;51.472;5.712;2023-04-24T11:50:15;9.20;;;2.50;;
42104;SDS011;68365;51.472;5.712;2023-04-24T11:52:45;8.35;;;1.88;;
42104;SDS011;68365;51.472;5.712;2023-04-24T11:57:39;8.82;;;2.35;;
42104;SDS011;68365;51.472;5.712;2023-04-24T12:02:45;5.55;;;2.05;;
42104;SDS011;68365;51.472;5.712;2023-04-24T12:05:21;9.88;;;2.22;;
42104;SDS011;68365;51.472;5.712;2023-04-24T12:07:52;4.72;;;2.00;;
42104;SDS011;68365;51.472;5.712;2023-04-24T12:10:22;5.03;;;2.05;;
42104;SDS011;68365;51.472;5.712;2023-04-24T12:12:51;5.93;;;2.08;;
42104;SDS011;68365;51.472;5.712;2023-04-24T12:15:18;5.78;;;1.80;;
42104;SDS011;68365;51.472;5.712;2023-04-24T12:17:45;6.82;;;1.80;;
42104;SDS011;68365;51.472;5.712;2023-04-24T12:20:12;5.00;;;2.03;;
42104;SDS011;68365;51.472;5.712;2023-04-24T12:22:42;3.33;;;1.90;;
42104;SDS011;68365;51.472;5.712;2023-04-24T12:25:11;4.57;;;2.10;;
42104;SDS011;68365;51.472;5.712;2023-04-24T12:27:37;6.85;;;2.20;;
42104;SDS011;68365;51.472;5.712;2023-04-24T12:30:04;6.32;;;2.08;;
42104;SDS011;68365;51.472;5.712;2023-04-24T12:32:34;4.38;;;1.60;;
42104;SDS011;68365;51.472;5.712;2023-04-24T12:35:00;7.90;;;2.00;;
42104;SDS011;68365;51.472;5.712;2023-04-24T12:37:32;7.53;;;1.80;;
42104;SDS011;68365;51.472;5.712;2023-04-24T12:42:33;4.53;;;1.80;;
42104;SDS011;68365;51.472;5.712;2023-04-24T12:45:02;4.28;;;1.35;;
42104;SDS011;68365;51.472;5.712;2023-04-24T12:47:32;5.93;;;1.50;;
42104;SDS011;68365;51.472;5.712;2023-04-24T12:49:59;5.63;;;1.40;;
42104;SDS011;68365;51.472;5.712;2023-04-24T12:52:27;3.58;;;1.30;;
42104;SDS011;68365;51.472;5.712;2023-04-24T12:54:55;4.18;;;1.50;;
42104;SDS011;68365;51.472;5.712;2023-04-24T12:57:23;6.38;;;1.48;;
42104;SDS011;68365;51.472;5.712;2023-04-24T12:59:53;4.65;;;1.75;;
42104;SDS011;68365;51.472;5.712;2023-04-24T13:02:24;6.03;;;1.63;;
42104;SDS011;68365;51.472;5.712;2023-04-24T13:04:52;7.03;;;1.63;;
42104;SDS011;68365;51.472;5.712;2023-04-24T13:07:19;7.60;;;1.58;;
42104;SDS011;68365;51.472;5.712;2023-04-24T13:09:45;6.53;;;1.40;;
42104;SDS011;68365;51.472;5.712;2023-04-24T13:12:13;4.00;;;1.55;;
42104;SDS011;68365;51.472;5.712;2023-04-24T13:14:39;4.82;;;1.20;;
42104;SDS011;68365;51.472;5.712;2023-04-24T13:17:05;6.95;;;1.40;;
42104;SDS011;68365;51.472;5.712;2023-04-24T13:19:39;9.73;;;1.63;;
42104;SDS011;68365;51.472;5.712;2023-04-24T13:22:08;4.35;;;1.70;;
42104;SDS011;68365;51.472;5.712;2023-04-24T13:24:36;8.93;;;1.90;;
42104;SDS011;68365;51.472;5.712;2023-04-24T13:27:03;5.43;;;1.30;;
42104;SDS011;68365;51.472;5.712;2023-04-24T13:29:29;8.35;;;1.45;;
42104;SDS011;68365;51.472;5.712;2023-04-24T13:31:55;6.28;;;1.73;;
42104;SDS011;68365;51.472;5.712;2023-04-24T13:34:24;9.30;;;1.50;;
42104;SDS011;68365;51.472;5.712;2023-04-24T13:36:52;5.32;;;1.45;;
42104;SDS011;68365;51.472;5.712;2023-04-24T13:39:19;5.43;;;1.63;;
42104;SDS011;68365;51.472;5.712;2023-04-24T13:41:46;5.00;;;1.50;;
42104;SDS011;68365;51.472;5.712;2023-04-24T13:44:13;3.65;;;1.20;;
42104;SDS011;68365;51.472;5.712;2023-04-24T13:46:43;5.40;;;1.42;;
42104;SDS011;68365;51.472;5.712;2023-04-24T13:49:11;4.53;;;1.42;;
42104;SDS011;68365;51.472;5.712;2023-04-24T13:51:38;8.98;;;1.88;;
42104;SDS011;68365;51.472;5.712;2023-04-24T13:54:05;6.82;;;1.40;;
42104;SDS011;68365;51.472;5.712;2023-04-24T13:56:31;10.65;;;1.52;;
42104;SDS011;68365;51.472;5.712;2023-04-24T13:58:57;4.85;;;1.30;;
42104;SDS011;68365;51.472;5.712;2023-04-24T14:01:23;7.95;;;1.50;;
42104;SDS011;68365;51.472;5.712;2023-04-24T14:03:52;4.50;;;1.50;;
42104;SDS011;68365;51.472;5.712;2023-04-24T14:06:19;7.65;;;1.92;;
42104;SDS011;68365;51.472;5.712;2023-04-24T14:08:45;6.80;;;1.45;;
42104;SDS011;68365;51.472;5.712;2023-04-24T14:11:12;3.63;;;1.15;;
42104;SDS011;68365;51.472;5.712;2023-04-24T14:13:38;5.10;;;1.38;;
42104;SDS011;68365;51.472;5.712;2023-04-24T14:16:10;6.32;;;1.17;;
42104;SDS011;68365;51.472;5.712;2023-04-24T14:18:36;5.30;;;1.33;;
42104;SDS011;68365;51.472;5.712;2023-04-24T14:21:05;6.75;;;1.38;;
42104;SDS011;68365;51.472;5.712;2023-04-24T14:23:31;5.72;;;1.42;;
42104;SDS011;68365;51.472;5.712;2023-04-24T14:25:57;5.00;;;1.40;;
42104;SDS011;68365;51.472;5.712;2023-04-24T14:28:24;9.35;;;1.30;;
42104;SDS011;68365;51.472;5.712;2023-04-24T14:30:51;7.88;;;1.40;;
42104;SDS011;68365;51.472;5.712;2023-04-24T14:33:17;5.05;;;1.10;;
42104;SDS011;68365;51.472;5.712;2023-04-24T14:35:44;5.30;;;1.27;;
42104;SDS011;68365;51.472;5.712;2023-04-24T14:38:10;8.88;;;1.42;;
42104;SDS011;68365;51.472;5.712;2023-04-24T14:40:36;3.88;;;1.40;;
42104;SDS011;68365;51.472;5.712;2023-04-24T14:43:03;4.05;;;1.20;;
42104;SDS011;68365;51.472;5.712;2023-04-24T14:45:29;5.38;;;1.50;;
42104;SDS011;68365;51.472;5.712;2023-04-24T14:47:55;4.63;;;1.13;;
42104;SDS011;68365;51.472;5.712;2023-04-24T14:50:22;4.63;;;1.30;;
42104;SDS011;68365;51.472;5.712;2023-04-24T14:52:48;3.97;;;1.70;;
42104;SDS011;68365;51.472;5.712;2023-04-24T14:55:14;11.20;;;1.17;;
42104;SDS011;68365;51.472;5.712;2023-04-24T14:57:41;5.95;;;1.48;;
42104;SDS011;68365;51.472;5.712;2023-04-24T15:00:07;4.30;;;1.25;;
42104;SDS011;68365;51.472;5.712;2023-04-24T15:02:35;4.93;;;1.40;;
42104;SDS011;68365;51.472;5.712;2023-04-24T15:05:05;2.72;;;1.05;;
42104;SDS011;68365;51.472;5.712;2023-04-24T15:07:32;4.03;;;1.50;;
42104;SDS011;68365;51.472;5.712;2023-04-24T15:09:58;6.20;;;1.48;;